Time;durP1;ratioP1;P1;durP2;ratioP2;P2;SDS_P1;SDS_P2;PMS_P1;PMS_P2;Temp;Humidity;BMP_temperature;BMP_pressure;BME280_temperature;BME280_humidity;BME280_pressure;Samples;Min_cycle;Max_cycle;Signal;HPM_P1;HPM_P2
2022/01/14 00:02:11;;;;;;;35.93;15.50;;;-2.40;77.00;;;-2.92;56.82;96267.69;5078940;28;20538;-63
2022/01/14 00:04:39;;;;;;;31.10;14.47;;;-2.40;77.00;;;-2.91;57.27;96269.41;5072848;28;20812;-60
2022/01/14 00:07:06;;;;;;;33.93;16.13;;;-2.40;77.00;;;-2.89;57.29;96267.63;5076399;28;20470;-64
2022/01/14 00:09:35;;;;;;;29.60;15.00;;;-2.40;77.00;;;-2.88;57.49;96260.78;5073894;28;20907;-64
2022/01/14 00:12:05;;;;;;;31.90;14.30;;;-2.40;77.00;;;-2.87;57.33;96262.47;5079608;28;20490;-64
2022/01/14 00:14:38;;;;;;;34.07;14.50;;;-2.30;77.10;;;-2.87;56.48;96280.47;5077454;28;20469;-65
2022/01/14 00:17:06;;;;;;;31.40;15.57;;;-2.40;77.00;;;-2.87;57.33;96280.47;5070638;28;20518;-60
2022/01/14 00:19:35;;;;;;;28.80;14.40;;;-2.40;77.00;;;-2.88;56.85;96271.09;5074526;28;20450;-64
2022/01/14 00:22:07;;;;;;;37.53;17.80;;;-2.40;77.00;;;-2.89;56.06;96283.09;5076084;28;20501;-65
2022/01/14 00:32:54;;;;;;;44.30;17.80;;;-2.40;77.00;;;-2.93;56.37;96289.19;5081260;28;20479;-65
2022/01/14 00:35:23;;;;;;;36.23;17.33;;;-2.40;77.00;;;-2.95;57.13;96290.91;5075940;28;20549;-60
2022/01/14 00:37:50;;;;;;;28.90;15.17;;;-2.40;77.00;;;-2.96;57.13;96293.50;5077837;28;20447;-61
2022/01/14 00:40:18;;;;;;;34.37;17.70;;;-2.50;76.80;;;-2.95;56.87;96290.06;5074449;28;20467;-59
2022/01/14 00:42:45;;;;;;;32.07;16.10;;;-2.50;76.80;;;-2.95;57.21;96290.91;5077074;28;20451;-59
2022/01/14 00:45:13;;;;;;;28.67;15.43;;;-2.50;76.80;;;-2.94;56.06;96287.47;5076719;28;20471;-60
2022/01/14 00:47:40;;;;;;;26.63;14.53;;;-2.40;77.00;;;-2.94;57.03;96284.06;5076105;28;20976;-60
2022/01/14 00:50:10;;;;;;;24.80;14.97;;;-2.50;76.80;;;-2.94;56.42;96297.75;5081211;28;20470;-60
2022/01/14 00:52:40;;;;;;;32.83;15.83;;;-2.40;77.00;;;-2.94;56.09;96307.22;5078793;28;20479;-65
2022/01/14 00:55:11;;;;;;;25.53;14.40;;;-2.40;77.00;;;-2.92;56.32;96303.72;5078939;28;20848;-64
2022/01/14 01:00:25;;;;;;;28.33;14.30;;;-2.40;76.90;;;-2.91;57.02;96297.72;5078245;28;20489;-64
2022/01/14 01:02:52;;;;;;;34.00;15.73;;;-2.40;76.80;;;-2.89;56.51;96295.97;5080772;28;20470;-61
2022/01/14 01:05:20;;;;;;;28.77;14.93;;;-2.40;76.70;;;-2.89;56.86;96293.38;5074291;28;20474;-64
2022/01/14 01:07:56;;;;;;;25.83;15.03;;;-2.40;76.50;;;-2.88;55.75;96289.09;5072882;28;20466;-61
2022/01/14 01:10:24;;;;;;;35.77;15.63;;;-2.40;76.40;;;-2.85;56.91;96288.19;5076311;28;20465;-60
2022/01/14 01:12:54;;;;;;;34.73;15.40;;;-2.40;76.30;;;-2.85;56.71;96288.19;5075423;28;20944;-60
2022/01/14 01:15:22;;;;;;;31.57;16.60;;;-2.40;76.10;;;-2.85;56.62;96283.03;5079411;28;20471;-63
2022/01/14 01:17:49;;;;;;;38.60;17.07;;;-2.40;76.10;;;-2.84;56.05;96282.16;5076476;28;20450;-66
2022/01/14 01:20:18;;;;;;;41.13;16.30;;;-2.40;76.00;;;-2.82;55.64;96272.69;5084535;28;20478;-61
2022/01/14 01:22:46;;;;;;;34.97;15.40;;;-2.40;76.00;;;-2.80;55.88;96265.81;5078030;28;20461;-65
2022/01/14 01:25:16;;;;;;;43.43;16.50;;;-2.30;76.00;;;-2.79;56.03;96270.94;5080627;28;20921;-62
2022/01/14 01:27:45;;;;;;;35.40;17.00;;;-2.30;75.90;;;-2.80;56.06;96258.94;5075217;28;20438;-65
2022/01/14 01:30:16;;;;;;;32.77;16.10;;;-2.30;75.80;;;-2.80;56.09;96258.09;5074490;28;20843;-61
2022/01/14 01:32:48;;;;;;;36.37;16.93;;;-2.30;75.80;;;-2.80;56.36;96264.06;5072207;28;20490;-61
2022/01/14 01:35:15;;;;;;;40.03;16.50;;;-2.30;75.80;;;-2.78;56.18;96261.47;5078084;28;21038;-59
2022/01/14 01:37:43;;;;;;;37.77;15.50;;;-2.30;76.00;;;-2.77;56.21;96252.91;5079268;28;20451;-61
2022/01/14 01:40:12;;;;;;;46.37;15.43;;;-2.30;76.00;;;-2.77;56.18;96261.47;5079465;28;20878;-64
2022/01/14 01:42:43;;;;;;;35.87;16.30;;;-2.30;75.90;;;-2.75;56.02;96256.28;5078657;28;20451;-60
2022/01/14 01:45:12;;;;;;;26.70;13.97;;;-2.30;75.80;;;-2.74;55.90;96255.41;5077566;28;20480;-65
2022/01/14 01:47:39;;;;;;;49.23;16.30;;;-2.30;75.70;;;-2.73;56.46;96259.66;5075132;28;20457;-65
2022/01/14 01:50:11;;;;;;;52.10;16.00;;;-2.20;75.90;;;-2.72;55.96;96248.50;5076416;28;20869;-66
2022/01/14 01:52:39;;;;;;;36.10;16.30;;;-2.20;75.70;;;-2.68;56.44;96250.16;5072918;28;20487;-61
2022/01/14 01:55:08;;;;;;;43.97;14.30;;;-2.20;75.60;;;-2.67;56.12;96248.44;5077992;28;20938;-64
2022/01/14 01:57:36;;;;;;;36.43;16.03;;;-2.20;75.60;;;-2.67;55.18;96241.53;5074905;28;20462;-64
2022/01/14 02:00:05;;;;;;;34.60;16.53;;;-2.20;75.60;;;-2.65;55.82;96237.25;5075997;28;20462;-61
2022/01/14 02:02:32;;;;;;;34.80;15.73;;;-2.10;75.70;;;-2.63;55.71;96235.47;5077873;28;20943;-64
2022/01/14 02:05:00;;;;;;;40.00;16.00;;;-2.20;75.40;;;-2.63;56.50;96229.47;5076834;28;20490;-61
2022/01/14 02:07:27;;;;;;;30.97;16.17;;;-2.10;75.40;;;-2.64;55.17;96225.19;5076162;28;20986;-60
2022/01/14 02:09:54;;;;;;;46.47;16.47;;;-2.10;75.20;;;-2.66;55.22;96214.94;5078402;28;20539;-64
2022/01/14 02:12:22;;;;;;;42.47;15.60;;;-2.20;74.90;;;-2.67;56.06;96212.38;5077057;28;20446;-63
2022/01/14 02:15:06;;;;;;;27.57;13.90;;;-2.20;75.00;;;-2.68;55.35;96206.38;5074751;28;21057;-59
2022/01/14 02:17:47;;;;;;;31.63;15.90;;;-2.20;75.10;;;-2.68;55.92;96203.81;5085888;28;20536;-64
2022/01/14 02:23:17;;;;;;;32.03;14.73;;;-2.20;75.10;;;-2.69;55.66;96184.06;5014695;28;20451;-59
2022/01/14 02:25:45;;;;;;;28.73;13.53;;;-2.20;75.10;;;-2.67;55.65;96189.19;5015558;28;20485;-64
2022/01/14 02:28:16;;;;;;;30.93;14.00;;;-2.20;75.00;;;-2.68;55.57;96190.94;5038571;28;20842;-59
2022/01/14 02:30:44;;;;;;;36.07;15.53;;;-2.20;75.00;;;-2.70;55.25;96184.94;5076205;28;20474;-59
2022/01/14 02:33:12;;;;;;;42.87;17.13;;;-2.20;75.10;;;-2.68;55.26;96200.38;5080747;28;20576;-65
2022/01/14 02:35:41;;;;;;;33.70;14.87;;;-2.20;75.10;;;-2.67;55.84;96191.78;5073674;28;21042;-64
2022/01/14 02:38:10;;;;;;;28.77;14.60;;;-2.20;74.90;;;-2.68;55.81;96185.78;5075078;28;20817;-61
2022/01/14 02:40:38;;;;;;;34.53;14.53;;;-2.20;74.90;;;-2.67;56.15;96184.06;5084979;28;20462;-63
2022/01/14 02:43:11;;;;;;;31.27;14.67;;;-2.20;75.00;;;-2.67;55.22;96189.19;5071945;28;20532;-59
2022/01/14 02:45:39;;;;;;;50.20;18.47;;;-2.20;74.80;;;-2.67;55.84;96178.91;5075688;28;20568;-60
2022/01/14 02:48:07;;;;;;;33.23;16.57;;;-2.20;74.80;;;-2.69;55.69;96171.19;5075624;28;20455;-60
2022/01/14 02:50:39;;;;;;;44.67;16.20;;;-2.20;74.90;;;-2.71;55.03;96176.38;5077716;28;20473;-63
2022/01/14 02:53:25;;;;;;;31.60;15.00;;;-2.20;74.70;;;-2.74;55.85;96175.59;5074847;28;20490;-64
2022/01/14 02:55:55;;;;;;;34.57;14.23;;;-2.30;74.70;;;-2.77;56.21;96176.50;5075530;28;20558;-64
2022/01/14 02:58:22;;;;;;;33.90;15.20;;;-2.30;74.70;;;-2.82;55.73;96169.72;5075248;28;20450;-65
2022/01/14 03:00:50;;;;;;;33.93;15.33;;;-2.30;74.80;;;-2.82;55.32;96165.44;5079571;28;20922;-65
2022/01/14 03:03:17;;;;;;;36.40;14.13;;;-2.30;74.90;;;-2.82;55.20;96162.00;5078699;28;20447;-65
2022/01/14 03:05:45;;;;;;;32.40;15.57;;;-2.30;74.90;;;-2.84;55.32;96158.59;5072534;28;20474;-64
2022/01/14 03:08:13;;;;;;;31.93;15.90;;;-2.30;74.80;;;-2.85;55.62;96156.88;5073732;28;20447;-59
2022/01/14 03:10:41;;;;;;;30.87;14.57;;;-2.30;74.90;;;-2.84;55.28;96153.44;5073896;28;20475;-64
2022/01/14 03:13:08;;;;;;;32.70;13.47;;;-2.40;74.80;;;-2.85;55.14;96154.31;5077892;28;20486;-65
2022/01/14 03:15:35;;;;;;;34.20;15.27;;;-2.40;74.90;;;-2.88;55.91;96143.22;5078253;28;20562;-64
2022/01/14 03:18:03;;;;;;;50.93;14.80;;;-2.40;75.00;;;-2.89;55.54;96144.06;5080833;28;20461;-65
2022/01/14 03:20:46;;;;;;;29.37;14.63;;;-2.40;74.90;;;-2.91;55.80;96143.25;5080181;28;20469;-63
2022/01/14 03:23:15;;;;;;;33.27;14.30;;;-2.40;75.00;;;-2.91;55.78;96132.13;5079504;28;20454;-61
2022/01/14 03:25:48;;;;;;;37.17;15.03;;;-2.40;75.10;;;-2.94;56.02;96127.03;5075029;28;20965;-64
2022/01/14 03:28:17;;;;;;;37.83;14.50;;;-2.40;75.20;;;-2.96;56.56;96121.03;5077720;28;20831;-60
2022/01/14 03:30:45;;;;;;;38.03;15.97;;;-2.50;75.10;;;-2.98;55.95;96126.22;5077793;28;20474;-64
2022/01/14 03:33:12;;;;;;;37.47;15.53;;;-2.50;75.20;;;-2.96;55.75;96119.34;5077523;28;20485;-64
2022/01/14 03:35:40;;;;;;;26.80;14.30;;;-2.50;75.20;;;-2.97;55.22;96117.63;5075779;28;20589;-61
2022/01/14 03:38:07;;;;;;;40.33;16.23;;;-2.40;75.30;;;-2.98;55.73;96123.66;5079368;28;20930;-59
2022/01/14 03:40:36;;;;;;;36.27;14.83;;;-2.50;75.20;;;-2.98;55.27;96110.78;5076724;28;20475;-59
2022/01/14 03:43:03;;;;;;;29.47;13.63;;;-2.50;75.10;;;-3.02;56.06;96104.00;5078841;28;20502;-64
2022/01/14 03:45:30;;;;;;;30.47;14.27;;;-2.50;75.10;;;-3.03;55.42;96102.28;5072417;28;20957;-60
2022/01/14 03:47:57;;;;;;;28.70;14.10;;;-2.50;75.10;;;-3.06;56.07;96097.22;5072519;28;20819;-60
2022/01/14 03:50:27;;;;;;;33.00;14.00;;;-2.50;75.10;;;-3.08;55.95;96092.09;5073976;28;20482;-64
2022/01/14 03:52:54;;;;;;;38.70;14.23;;;-2.50;75.20;;;-3.08;56.29;96098.97;5072934;28;20964;-64
2022/01/14 03:55:22;;;;;;;32.00;14.83;;;-2.60;75.30;;;-3.09;55.74;96103.25;5073925;28;20466;-59
2022/01/14 03:57:51;;;;;;;34.57;14.50;;;-2.60;75.20;;;-3.08;56.42;96098.97;5075395;28;20882;-59
2022/01/14 04:00:19;;;;;;;29.57;15.17;;;-2.60;75.20;;;-3.09;56.56;96097.25;5072705;28;20556;-60
2022/01/14 04:02:46;;;;;;;28.00;14.00;;;-2.60;75.20;;;-3.10;55.20;96086.13;5073807;28;20466;-64
2022/01/14 04:05:14;;;;;;;29.43;13.57;;;-2.60;75.20;;;-3.08;56.01;96096.41;5079253;28;20477;-60
2022/01/14 04:07:42;;;;;;;31.63;13.93;;;-2.60;75.20;;;-3.07;56.09;96104.09;5075771;28;20453;-60
2022/01/14 04:10:12;;;;;;;27.70;13.30;;;-2.60;75.00;;;-3.07;56.02;96098.94;5079266;28;20621;-60
2022/01/14 04:12:50;;;;;;;35.50;14.80;;;-2.60;75.00;;;-3.06;55.66;96090.31;5076514;28;20870;-63
2022/01/14 04:18:03;;;;;;;35.30;15.10;;;-2.60;75.00;;;-3.07;55.86;96082.63;5074944;28;20441;-65
2022/01/14 04:20:31;;;;;;;30.10;13.60;;;-2.60;75.00;;;-3.06;55.43;96081.75;5080361;28;20481;-64
2022/01/14 04:22:58;;;;;;;24.17;13.20;;;-2.60;75.00;;;-3.02;55.51;96082.53;5074845;28;20458;-65
2022/01/14 04:25:25;;;;;;;29.30;13.70;;;-2.60;74.90;;;-2.99;55.98;96085.94;5077707;28;20467;-60
2022/01/14 04:27:52;;;;;;;26.23;12.97;;;-2.50;74.90;;;-2.96;55.37;96072.13;5078280;28;20439;-65
2022/01/14 04:30:22;;;;;;;28.03;13.80;;;-2.50;74.80;;;-2.94;55.95;96081.53;5079396;28;20482;-60
2022/01/14 04:32:49;;;;;;;20.97;11.20;;;-2.40;74.60;;;-2.89;56.15;96082.28;5077427;28;20462;-60
2022/01/14 04:35:17;;;;;;;29.87;14.90;;;-2.40;74.60;;;-2.86;55.66;96078.81;5076248;28;20493;-66
2022/01/14 04:37:44;;;;;;;20.90;11.57;;;-2.40;74.60;;;-2.81;54.79;96071.84;5078349;28;20463;-64
2022/01/14 04:40:13;;;;;;;28.20;11.90;;;-2.30;74.60;;;-2.76;54.58;96082.06;5078914;28;20478;-63
2022/01/14 04:42:42;;;;;;;30.93;13.27;;;-2.30;74.60;;;-2.74;54.36;96082.91;5077066;28;20471;-65
2022/01/14 04:45:12;;;;;;;25.10;12.53;;;-2.30;74.10;;;-2.74;55.77;96077.75;5076396;28;20525;-60
2022/01/14 04:47:46;;;;;;;31.30;15.33;;;-2.20;74.60;;;-2.75;55.23;96074.31;5074174;28;20876;-62
2022/01/14 04:50:15;;;;;;;39.23;15.80;;;-2.30;74.20;;;-2.74;54.58;96073.44;5081465;28;20473;-60
2022/01/14 04:52:43;;;;;;;47.33;17.47;;;-2.30;74.00;;;-2.74;55.03;96078.59;5079048;28;20447;-60
2022/01/14 04:55:11;;;;;;;35.27;17.40;;;-2.20;74.10;;;-2.73;55.30;96074.28;5080501;28;20490;-62
2022/01/14 04:57:39;;;;;;;31.67;14.17;;;-2.20;74.60;;;-2.71;56.26;96075.97;5080575;28;20565;-61
2022/01/14 05:00:09;;;;;;;27.53;12.37;;;-2.20;75.10;;;-2.64;58.07;96076.69;5077813;28;20489;-60
2022/01/14 05:02:36;;;;;;;36.57;14.37;;;-2.20;80.20;;;-2.58;57.92;96068.81;5076755;28;20882;-60
2022/01/14 05:05:06;;;;;;;27.53;13.13;;;-2.20;80.40;;;-2.46;59.04;96061.72;5077141;28;20477;-60
2022/01/14 05:07:33;;;;;;;26.73;13.60;;;-2.10;80.60;;;-2.35;57.41;96047.75;5075548;28;20963;-60
2022/01/14 05:10:17;;;;;;;32.03;14.00;;;-2.00;80.30;;;-2.25;57.72;96052.69;5080374;28;20451;-59
2022/01/14 05:12:45;;;;;;;32.10;14.63;;;-1.90;79.90;;;-2.13;57.67;96054.19;5079822;28;20450;-60
2022/01/14 05:15:13;;;;;;;29.70;13.53;;;-1.70;79.60;;;-2.11;56.11;96066.13;5078915;28;20490;-62
2022/01/14 05:17:41;;;;;;;25.07;12.63;;;-1.70;76.40;;;-2.16;55.28;96066.22;5080629;28;20450;-64
2022/01/14 05:20:11;;;;;;;28.97;13.00;;;-1.70;75.20;;;-2.19;54.90;96074.03;5075360;28;20586;-63
2022/01/14 05:22:38;;;;;;;24.40;13.00;;;-1.70;74.60;;;-2.26;54.35;96064.75;5077906;28;20546;-64
2022/01/14 05:25:07;;;;;;;24.90;14.60;;;-1.80;73.90;;;-2.29;55.18;96084.56;5075879;28;20488;-60
2022/01/14 05:27:34;;;;;;;35.10;14.53;;;-1.80;73.80;;;-2.33;54.76;96077.78;5073120;28;20460;-63
2022/01/14 05:30:02;;;;;;;23.13;12.03;;;-1.90;73.60;;;-2.33;54.70;96072.63;5076956;28;20455;-63
2022/01/14 05:32:29;;;;;;;26.83;13.30;;;-1.90;73.90;;;-2.36;54.47;96076.97;5076377;28;20497;-60
2022/01/14 05:34:56;;;;;;;26.57;11.60;;;-1.90;73.60;;;-2.37;55.18;96069.25;5076677;28;20482;-60
2022/01/14 05:37:25;;;;;;;21.27;11.27;;;-1.90;73.60;;;-2.39;54.14;96063.31;5082590;28;20447;-64
2022/01/14 05:39:52;;;;;;;26.10;13.63;;;-1.90;73.50;;;-2.39;54.64;96058.97;5079328;28;20458;-60
2022/01/14 05:42:20;;;;;;;26.70;12.27;;;-1.90;73.60;;;-2.38;55.28;96054.69;5078211;28;20451;-64
2022/01/14 05:44:47;;;;;;;21.47;13.43;;;-1.90;73.40;;;-2.38;54.77;96063.28;5078631;28;20446;-65
2022/01/14 05:47:14;;;;;;;22.33;12.30;;;-1.90;73.40;;;-2.37;54.10;96061.53;5073484;28;20451;-64
2022/01/14 05:49:42;;;;;;;22.77;11.10;;;-1.90;73.50;;;-2.36;53.93;96068.38;5077016;28;20939;-65
2022/01/14 05:52:09;;;;;;;24.37;12.67;;;-1.90;73.60;;;-2.35;54.51;96059.78;5071144;28;20866;-65
2022/01/14 05:54:38;;;;;;;24.93;11.80;;;-1.90;73.40;;;-2.32;54.13;96053.69;5073519;28;20486;-63
2022/01/14 05:57:06;;;;;;;28.33;14.90;;;-1.90;73.40;;;-2.30;55.00;96057.13;5072837;28;20479;-61
2022/01/14 05:59:33;;;;;;;24.33;11.87;;;-1.90;73.50;;;-2.29;54.25;96057.09;5076698;28;20451;-64
2022/01/14 06:02:02;;;;;;;25.27;13.47;;;-1.80;73.50;;;-2.28;54.33;96061.34;5074180;28;20955;-61
2022/01/14 06:04:29;;;;;;;20.90;12.13;;;-1.80;73.50;;;-2.23;54.28;96059.53;5076266;28;20454;-65
2022/01/14 06:06:56;;;;;;;21.07;11.37;;;-1.80;73.60;;;-2.13;54.47;96057.59;5078335;28;20471;-60
2022/01/14 06:09:23;;;;;;;20.80;12.87;;;-1.70;73.80;;;-2.04;54.47;96051.41;5077777;28;20800;-62
2022/01/14 06:11:52;;;;;;;26.10;11.70;;;-1.60;73.60;;;-1.99;54.48;96045.22;5076969;28;20559;-61
2022/01/14 06:14:20;;;;;;;30.00;12.13;;;-1.60;73.20;;;-1.95;53.95;96043.44;5077357;28;20535;-65
2022/01/14 06:16:48;;;;;;;21.93;10.97;;;-1.50;73.20;;;-1.90;54.58;96040.78;5074035;28;21010;-62
2022/01/14 06:19:15;;;;;;;22.87;11.20;;;-1.50;73.10;;;-1.76;54.07;96037.88;5073111;28;20455;-64
2022/01/14 06:21:43;;;;;;;19.70;11.10;;;-1.40;72.70;;;-1.69;53.54;96039.41;5081474;28;20573;-65
2022/01/14 06:24:10;;;;;;;24.97;12.13;;;-1.30;72.70;;;-1.64;54.06;96029.84;5078287;28;20458;-62
2022/01/14 06:26:37;;;;;;;25.83;12.67;;;-1.20;72.90;;;-1.61;53.76;96037.50;5076140;28;21013;-65
2022/01/14 06:29:06;;;;;;;25.00;12.83;;;-1.20;72.90;;;-1.57;54.45;96039.09;5076914;28;20457;-61
2022/01/14 06:31:34;;;;;;;24.77;11.67;;;-1.20;73.10;;;-1.53;54.48;96040.72;5076040;28;20486;-65
2022/01/14 06:34:02;;;;;;;19.70;12.67;;;-1.10;73.20;;;-1.49;53.94;96036.34;5080418;28;20477;-64
2022/01/14 06:36:29;;;;;;;21.30;11.97;;;-1.10;73.30;;;-1.45;54.26;96036.22;5079696;28;20478;-65
2022/01/14 06:38:56;;;;;;;24.00;13.20;;;-1.00;73.50;;;-1.39;54.08;96040.38;5071375;28;20458;-66
2022/01/14 06:41:24;;;;;;;23.73;12.10;;;-1.00;73.50;;;-1.34;54.31;96035.13;5075266;28;20558;-64
2022/01/14 06:43:51;;;;;;;44.13;13.17;;;-0.90;73.60;;;-1.27;54.21;96031.47;5074828;28;20471;-61
2022/01/14 06:46:20;;;;;;;25.10;12.43;;;-0.90;73.50;;;-1.22;54.32;96034.81;5071968;28;20466;-60
2022/01/14 06:48:47;;;;;;;29.97;13.13;;;-0.80;73.60;;;-1.17;54.12;96032.09;5074944;28;20459;-64
2022/01/14 06:51:15;;;;;;;24.40;12.13;;;-0.80;73.40;;;-1.11;54.18;96043.09;5076125;28;21013;-61
2022/01/14 06:53:42;;;;;;;21.90;11.10;;;-0.70;73.60;;;-1.06;54.16;96021.50;5074961;28;20447;-66
2022/01/14 06:56:11;;;;;;;24.03;11.53;;;-0.60;73.50;;;-1.00;54.34;96013.59;5078174;28;20474;-63
2022/01/14 06:58:38;;;;;;;28.00;12.40;;;-0.60;73.40;;;-0.96;54.39;96010.88;5075910;28;20490;-64
2022/01/14 07:01:06;;;;;;;17.53;10.50;;;-0.50;73.40;;;-0.89;54.26;96001.22;5072336;28;20459;-64
2022/01/14 07:03:34;;;;;;;21.90;12.10;;;-0.50;73.50;;;-0.82;54.40;96007.91;5080926;28;20461;-64
2022/01/14 07:06:02;;;;;;;21.20;12.57;;;-0.50;73.40;;;-0.76;54.08;96001.72;5070910;28;20571;-62
2022/01/14 07:08:29;;;;;;;25.67;12.63;;;-0.40;73.30;;;-0.74;53.87;95995.63;5077812;28;20876;-62
2022/01/14 07:10:56;;;;;;;26.20;13.33;;;-0.30;73.10;;;-0.70;53.74;96000.69;5069573;28;20463;-60
2022/01/14 07:13:24;;;;;;;26.70;13.53;;;-0.30;73.10;;;-0.65;54.00;95980.72;5077013;28;20447;-65
2022/01/14 07:15:51;;;;;;;29.40;14.40;;;-0.30;73.10;;;-0.59;53.85;95972.81;5077921;28;20513;-65
2022/01/14 07:18:18;;;;;;;27.30;14.60;;;-0.20;73.20;;;-0.53;54.54;95976.97;5082726;28;20454;-61
2022/01/14 07:20:47;;;;;;;40.63;15.40;;;-0.20;73.50;;;-0.45;54.31;95991.34;5076274;28;20467;-62
2022/01/14 07:23:14;;;;;;;32.03;15.30;;;0.00;73.70;;;-0.38;54.52;95985.09;5076992;28;20458;-64
2022/01/14 07:25:42;;;;;;;33.20;14.07;;;0.00;73.70;;;-0.31;54.26;95992.66;5073805;28;20837;-60
2022/01/14 07:28:09;;;;;;;22.43;12.43;;;0.10;73.50;;;-0.30;53.49;95995.19;5074035;28;20773;-61
2022/01/14 07:30:36;;;;;;;31.10;13.93;;;0.10;73.30;;;-0.31;54.07;95997.84;5075816;28;20483;-65
2022/01/14 07:33:04;;;;;;;25.20;14.13;;;0.10;73.30;;;-0.30;53.86;95987.44;5076442;28;20462;-62
2022/01/14 07:35:31;;;;;;;24.33;13.87;;;0.10;73.30;;;-0.25;54.14;95984.72;5071743;28;20498;-65
2022/01/14 07:38:00;;;;;;;30.80;14.67;;;0.10;73.60;;;-0.20;54.11;95980.28;5074898;28;20451;-61
2022/01/14 07:40:28;;;;;;;23.27;13.27;;;0.20;73.80;;;-0.15;54.33;95975.81;5076123;28;20588;-65
2022/01/14 07:42:55;;;;;;;24.20;11.70;;;0.20;73.90;;;-0.08;53.68;95968.69;5075527;28;20453;-64
2022/01/14 07:45:23;;;;;;;23.40;12.30;;;0.30;74.00;;;-0.05;53.93;95964.28;5078650;28;20486;-65
2022/01/14 07:47:50;;;;;;;22.07;12.10;;;0.30;73.60;;;0.02;53.75;95969.25;5078105;28;20454;-61
2022/01/14 07:50:17;;;;;;;22.30;11.23;;;0.40;73.60;;;0.09;54.15;95965.56;5080779;28;20478;-61
2022/01/14 07:52:45;;;;;;;26.03;11.33;;;0.40;73.60;;;0.12;54.00;95960.28;5074410;28;20963;-62
2022/01/14 07:55:14;;;;;;;18.27;9.90;;;0.50;73.70;;;0.20;54.26;95958.31;5076712;28;20862;-65
2022/01/14 07:57:41;;;;;;;17.60;10.20;;;0.60;73.80;;;0.30;57.27;95975.22;5079345;28;20556;-62
2022/01/14 08:00:09;;;;;;;20.37;12.10;;;0.70;78.90;;;0.42;58.23;95967.94;5079602;28;20657;-65
2022/01/14 08:02:37;;;;;;;23.67;12.30;;;0.70;80.60;;;0.59;56.38;95962.19;5076546;28;20458;-64
2022/01/14 08:05:05;;;;;;;21.30;10.37;;;0.90;78.00;;;0.70;55.88;95949.75;5083732;28;20508;-65
2022/01/14 08:07:34;;;;;;;26.23;11.90;;;1.00;78.00;;;0.81;55.00;95950.22;5078009;28;20455;-62
2022/01/14 08:10:01;;;;;;;29.53;12.20;;;1.10;76.10;;;0.89;53.86;95942.19;5079561;28;20452;-65
2022/01/14 08:12:30;;;;;;;21.60;11.30;;;1.20;74.90;;;0.93;54.22;95937.72;5082247;28;20451;-61
2022/01/14 08:14:58;;;;;;;17.20;11.87;;;1.30;74.50;;;0.96;54.24;95940.19;5075951;28;20494;-62
2022/01/14 08:17:25;;;;;;;32.93;17.13;;;1.30;74.50;;;1.01;53.73;95935.72;5074985;28;20541;-65
2022/01/14 08:19:53;;;;;;;30.43;12.20;;;1.30;74.50;;;1.10;54.79;95950.06;5080907;28;20536;-64
2022/01/14 08:22:20;;;;;;;18.07;11.30;;;1.40;74.60;;;1.19;53.63;95944.56;5081215;28;20511;-61
2022/01/14 08:24:47;;;;;;;24.90;12.30;;;1.50;74.70;;;1.29;54.10;95938.13;5079573;28;20903;-62
2022/01/14 08:27:15;;;;;;;25.30;12.60;;;1.60;74.70;;;1.38;53.90;95935.19;5080004;28;20454;-66
2022/01/14 08:29:44;;;;;;;29.60;12.60;;;1.70;74.90;;;1.47;54.35;95935.75;5077721;28;20462;-65
2022/01/14 08:32:12;;;;;;;25.13;11.83;;;1.80;75.00;;;1.55;54.46;95936.28;5077452;28;20494;-61
2022/01/14 08:34:39;;;;;;;20.33;11.60;;;1.80;75.00;;;1.60;54.41;95924.00;5078973;28;20500;-65
2022/01/14 08:37:07;;;;;;;22.83;11.80;;;1.90;74.50;;;1.66;53.41;95922.91;5078953;28;20476;-64
2022/01/14 08:39:34;;;;;;;24.50;12.50;;;1.90;74.20;;;1.66;53.33;95926.38;5080151;28;20830;-61
2022/01/14 08:42:03;;;;;;;21.27;12.37;;;2.00;74.10;;;1.68;53.20;95921.97;5072293;28;21163;-65
2022/01/14 08:44:31;;;;;;;23.30;12.80;;;2.00;74.10;;;1.71;53.15;95919.25;5074960;28;20450;-61
2022/01/14 08:47:00;;;;;;;19.90;11.83;;;2.00;74.00;;;1.76;53.39;95919.06;5075868;28;21016;-61
2022/01/14 08:49:27;;;;;;;26.37;12.67;;;2.10;74.00;;;1.82;54.45;95923.19;5078707;28;20971;-61
2022/01/14 08:51:54;;;;;;;31.23;13.00;;;2.10;74.00;;;1.88;53.79;95928.97;5078014;28;20926;-61
2022/01/14 08:54:22;;;;;;;26.03;13.67;;;2.20;74.40;;;1.97;54.22;95923.41;5078344;28;20454;-60
2022/01/14 08:56:49;;;;;;;26.33;15.20;;;2.20;74.40;;;2.08;53.72;95915.19;5079015;28;20875;-61
2022/01/14 08:59:17;;;;;;;21.20;13.20;;;2.40;74.80;;;2.25;53.59;95908.47;5076465;28;20968;-62
2022/01/14 09:01:45;;;;;;;21.30;13.27;;;2.50;74.90;;;2.37;54.32;95899.31;5075713;28;20565;-62
2022/01/14 09:04:14;;;;;;;20.30;11.10;;;2.60;74.70;;;2.49;54.33;95907.44;5072646;28;20450;-64
2022/01/14 09:06:41;;;;;;;25.07;10.80;;;2.70;75.00;;;2.57;54.54;95906.25;5072021;28;20490;-65
2022/01/14 09:09:08;;;;;;;23.27;9.40;;;2.80;75.40;;;2.63;54.37;95903.41;5078968;28;20459;-61
2022/01/14 09:11:36;;;;;;;15.03;8.17;;;2.90;76.00;;;2.67;55.34;95900.59;5078245;28;20474;-64
2022/01/14 09:14:03;;;;;;;14.00;9.00;;;3.00;76.30;;;2.75;55.52;95879.50;5078802;28;20455;-65
2022/01/14 09:16:30;;;;;;;30.67;8.63;;;3.00;78.60;;;2.84;54.86;95879.09;5081781;28;20489;-60
2022/01/14 09:18:58;;;;;;;11.00;7.50;;;3.10;77.30;;;2.88;54.50;95872.00;5080174;28;20841;-62
2022/01/14 09:21:27;;;;;;;11.87;7.37;;;3.10;76.80;;;2.97;55.87;95870.75;5085736;28;20466;-66
2022/01/14 09:24:03;;;;;;;16.23;8.70;;;3.20;77.20;;;3.04;54.98;95875.59;5077682;28;20455;-66
2022/01/14 09:26:30;;;;;;;12.80;8.03;;;3.30;76.40;;;3.13;54.20;95863.09;5078738;28;20536;-65
2022/01/14 09:28:58;;;;;;;15.40;8.03;;;3.30;76.40;;;3.16;54.02;95863.81;5077151;28;20450;-66
2022/01/14 09:31:25;;;;;;;33.60;8.50;;;3.40;75.70;;;3.09;54.48;95857.19;5074386;28;20487;-61
2022/01/14 09:33:52;;;;;;;12.63;7.67;;;3.40;75.20;;;3.01;54.18;95843.72;5078702;28;20451;-65
2022/01/14 09:36:20;;;;;;;13.60;7.83;;;3.30;75.30;;;2.97;54.28;95852.56;5078151;28;20486;-65
2022/01/14 09:38:48;;;;;;;12.13;6.60;;;3.20;75.70;;;2.95;54.93;95854.38;5078458;28;20837;-67
2022/01/14 09:41:17;;;;;;;15.33;10.10;;;3.20;75.90;;;2.92;54.19;95854.53;5080566;28;20474;-65
2022/01/14 09:43:45;;;;;;;11.60;6.67;;;3.20;76.30;;;2.91;55.86;95858.03;5077619;28;20537;-62
2022/01/14 09:46:12;;;;;;;14.50;7.97;;;3.20;77.00;;;2.90;54.62;95852.00;5081898;28;20463;-66
2022/01/14 09:48:40;;;;;;;14.97;8.87;;;3.20;76.70;;;2.89;55.37;95844.28;5074284;28;20446;-61
2022/01/14 09:51:08;;;;;;;14.90;8.47;;;3.20;76.70;;;2.85;55.11;95847.00;5075643;28;20917;-69
2022/01/14 09:53:35;;;;;;;15.03;8.80;;;3.20;76.30;;;2.81;54.76;95839.41;5078312;28;20458;-62
2022/01/14 09:56:05;;;;;;;27.73;8.30;;;3.10;76.70;;;2.79;54.64;95828.22;5073751;28;20584;-66
2022/01/14 09:58:36;;;;;;;18.90;9.90;;;3.10;76.90;;;2.84;55.06;95827.13;5074292;28;20470;-62
2022/01/14 10:01:09;;;;;;;16.13;8.90;;;3.10;76.80;;;2.90;54.72;95818.22;5077144;28;20531;-62
2022/01/14 10:03:36;;;;;;;14.30;8.83;;;3.20;77.20;;;3.00;55.58;95810.84;5078044;28;20455;-62
2022/01/14 10:06:04;;;;;;;16.30;8.60;;;3.30;77.10;;;3.06;54.57;95807.97;5076200;28;20461;-62
2022/01/14 10:08:31;;;;;;;39.27;9.10;;;3.30;76.40;;;3.16;54.11;95806.63;5076887;28;20447;-63
2022/01/14 10:11:01;;;;;;;18.40;9.70;;;3.40;76.50;;;3.26;54.97;95806.19;5077742;28;20473;-67
2022/01/14 10:13:31;;;;;;;11.63;8.00;;;3.50;76.20;;;3.33;54.36;95794.56;5076401;28;20451;-62
2022/01/14 10:16:02;;;;;;;11.87;8.23;;;3.60;75.80;;;3.35;54.28;95790.16;5075758;28;21114;-65
2022/01/14 10:18:30;;;;;;;19.20;9.23;;;3.60;75.80;;;3.39;53.70;95781.28;5081711;28;20469;-65
2022/01/14 10:21:01;;;;;;;13.53;9.30;;;3.60;75.80;;;3.39;54.13;95776.06;5079526;28;20646;-65
2022/01/14 10:23:44;;;;;;;12.97;8.03;;;3.70;75.90;;;3.42;54.97;95760.34;5076059;28;20482;-61
2022/01/14 10:26:11;;;;;;;14.87;8.50;;;3.60;75.90;;;3.42;54.13;95762.94;5078874;28;20474;-67
2022/01/14 10:28:43;;;;;;;18.13;7.90;;;3.60;76.30;;;3.43;54.51;95756.81;5081839;28;20447;-66
2022/01/14 10:31:11;;;;;;;11.40;6.83;;;3.70;76.20;;;3.43;55.00;95754.22;5077049;28;20470;-66
2022/01/14 10:33:38;;;;;;;14.10;8.43;;;3.70;76.80;;;3.46;54.09;95751.47;5079891;28;20431;-61